Time;durP1;ratioP1;P1;durP2;ratioP2;P2;SDS_P1;SDS_P2;PMS_P1;PMS_P2;Temp;Humidity;BMP_temperature;BMP_pressure;BME280_temperature;BME280_humidity;BME280_pressure;Samples;Min_cycle;Max_cycle;Signal;HPM_P1;HPM_P2
2023/03/19 00:01:57;;;;;;;17.20;11.60;;;12.20;99.90;;;;;;5049171;28;20219;-75
2023/03/19 00:04:25;;;;;;;19.40;12.07;;;12.10;99.90;;;;;;5065205;28;20229;-77
2023/03/19 00:06:51;;;;;;;16.07;11.43;;;12.10;99.90;;;;;;5064837;28;20210;-77
2023/03/19 00:09:17;;;;;;;18.30;11.57;;;12.10;99.90;;;;;;5052167;28;20238;-77
2023/03/19 00:11:43;;;;;;;13.83;10.83;;;12.20;99.90;;;;;;5060891;28;20245;-76
2023/03/19 00:14:08;;;;;;;17.17;11.30;;;12.20;99.90;;;;;;5085048;28;20230;-75
2023/03/19 00:16:35;;;;;;;18.80;11.43;;;12.10;99.90;;;;;;5066561;28;20186;-74
2023/03/19 00:19:02;;;;;;;13.60;9.87;;;12.00;99.90;;;;;;5065910;28;20218;-77
2023/03/19 00:21:29;;;;;;;15.17;9.87;;;11.90;99.90;;;;;;5064079;28;20226;-75
2023/03/19 00:23:59;;;;;;;18.97;10.47;;;11.90;99.90;;;;;;5046771;28;20215;-76
2023/03/19 00:26:26;;;;;;;16.33;11.07;;;11.90;99.90;;;;;;5080903;28;20203;-76
2023/03/19 00:28:51;;;;;;;18.30;11.20;;;11.80;99.90;;;;;;5064698;28;20171;-76
2023/03/19 00:31:17;;;;;;;17.30;11.07;;;11.80;99.90;;;;;;5045735;28;20182;-77
2023/03/19 00:33:43;;;;;;;15.80;10.47;;;11.80;99.90;;;;;;5061716;28;20585;-76
2023/03/19 00:36:10;;;;;;;17.80;11.03;;;11.70;99.90;;;;;;5069935;28;20222;-75
2023/03/19 00:38:36;;;;;;;18.27;10.70;;;11.70;99.90;;;;;;5046437;28;20206;-73
2023/03/19 00:41:04;;;;;;;15.80;11.13;;;11.70;99.90;;;;;;5080297;28;20613;-76
2023/03/19 00:43:29;;;;;;;16.27;9.97;;;11.70;99.90;;;;;;5068209;28;20699;-75
2023/03/19 00:45:55;;;;;;;13.80;10.63;;;11.70;99.90;;;;;;5050850;28;20219;-77
2023/03/19 00:48:21;;;;;;;18.60;11.07;;;11.70;99.90;;;;;;5071273;28;20209;-77
2023/03/19 00:50:47;;;;;;;17.03;10.43;;;11.60;99.90;;;;;;5049041;28;20207;-76
2023/03/19 00:53:13;;;;;;;18.00;10.30;;;11.60;99.90;;;;;;5066111;28;20592;-75
2023/03/19 00:55:39;;;;;;;15.10;10.73;;;11.60;99.90;;;;;;5052535;28;20236;-77
2023/03/19 00:58:05;;;;;;;14.43;10.27;;;11.50;99.90;;;;;;5070403;28;20182;-75
2023/03/19 01:00:32;;;;;;;15.27;10.33;;;11.40;99.90;;;;;;5053198;28;20572;-77
2023/03/19 01:02:58;;;;;;;16.40;10.30;;;11.50;99.90;;;;;;5070134;28;20234;-76
2023/03/19 01:05:25;;;;;;;16.27;10.60;;;11.40;99.90;;;;;;5070763;28;20266;-76
2023/03/19 01:07:50;;;;;;;14.73;10.07;;;11.40;99.90;;;;;;5071495;28;20713;-76
2023/03/19 01:10:18;;;;;;;14.80;9.47;;;11.50;99.90;;;;;;5086472;28;20233;-75
2023/03/19 01:12:44;;;;;;;15.80;10.00;;;11.50;99.90;;;;;;5065904;28;20756;-74
2023/03/19 01:15:10;;;;;;;16.77;10.23;;;11.30;99.90;;;;;;5048777;28;20207;-76
2023/03/19 01:17:36;;;;;;;15.40;9.87;;;11.20;99.90;;;;;;5052286;28;20701;-76
2023/03/19 01:20:02;;;;;;;17.87;9.77;;;11.20;99.90;;;;;;5067606;28;20210;-75
2023/03/19 01:22:27;;;;;;;17.07;10.10;;;11.20;99.90;;;;;;5051116;28;20616;-74
2023/03/19 01:24:53;;;;;;;18.07;10.43;;;11.10;99.90;;;;;;5047953;28;20359;-76
2023/03/19 01:27:20;;;;;;;16.53;10.60;;;11.10;99.90;;;;;;5070696;28;20260;-76
2023/03/19 01:29:45;;;;;;;18.63;10.77;;;11.10;99.90;;;;;;5072141;28;20222;-77
2023/03/19 01:32:11;;;;;;;17.10;10.13;;;11.00;99.90;;;;;;5081504;28;20690;-76
2023/03/19 01:34:37;;;;;;;16.83;10.03;;;11.00;99.90;;;;;;5052073;28;20208;-76
2023/03/19 01:37:02;;;;;;;16.53;10.83;;;11.00;99.90;;;;;;5066009;28;20915;-76
2023/03/19 01:39:28;;;;;;;14.30;11.20;;;11.00;99.90;;;;;;5072096;28;20230;-76
2023/03/19 01:41:53;;;;;;;15.33;9.80;;;11.00;99.90;;;;;;5066929;28;20299;-76
2023/03/19 01:44:33;;;;;;;16.97;10.27;;;10.90;99.90;;;;;;5067556;28;20771;-75
2023/03/19 01:47:03;;;;;;;15.77;10.57;;;10.90;99.90;;;;;;5069187;28;20210;-76
2023/03/19 01:49:29;;;;;;;16.73;10.90;;;11.00;99.90;;;;;;5069486;28;20179;-75
2023/03/19 01:51:58;;;;;;;18.07;11.13;;;10.90;99.90;;;;;;5069033;28;20256;-77
2023/03/19 01:54:25;;;;;;;18.87;10.80;;;10.90;99.90;;;;;;5068944;28;20712;-74
2023/03/19 01:56:57;;;;;;;15.80;9.80;;;11.00;99.90;;;;;;5046651;28;20594;-76
2023/03/19 01:59:28;;;;;;;18.93;11.93;;;11.00;99.90;;;;;;5066979;28;20239;-76
2023/03/19 02:01:58;;;;;;;17.10;11.03;;;11.00;99.90;;;;;;5051981;28;20271;-76
2023/03/19 02:04:26;;;;;;;13.97;10.67;;;11.00;99.90;;;;;;5067037;28;20203;-76
2023/03/19 02:06:55;;;;;;;16.17;10.93;;;11.10;99.90;;;;;;5049730;28;20303;-77
2023/03/19 02:09:21;;;;;;;16.40;10.50;;;11.20;99.90;;;;;;5065351;28;20557;-77
2023/03/19 02:11:47;;;;;;;17.63;11.03;;;11.10;99.90;;;;;;5070777;28;20214;-76
2023/03/19 02:14:12;;;;;;;19.30;11.00;;;11.10;99.90;;;;;;5069374;28;20249;-74
2023/03/19 02:16:38;;;;;;;15.73;10.60;;;11.10;99.90;;;;;;5067669;28;20183;-75
2023/03/19 02:19:12;;;;;;;15.80;10.23;;;10.90;99.90;;;;;;5068845;28;20163;-76
2023/03/19 02:21:37;;;;;;;16.53;11.23;;;10.90;99.90;;;;;;5068730;28;20344;-74
2023/03/19 02:24:13;;;;;;;17.10;12.03;;;10.80;99.90;;;;;;5068184;28;20302;-75
2023/03/19 02:26:40;;;;;;;16.13;10.53;;;10.80;99.90;;;;;;5052377;28;20822;-75
2023/03/19 02:29:06;;;;;;;17.23;10.83;;;10.80;99.90;;;;;;5066384;28;20210;-74
2023/03/19 02:31:32;;;;;;;14.70;10.37;;;10.70;99.90;;;;;;5050829;28;20182;-75
2023/03/19 02:34:02;;;;;;;15.90;10.10;;;10.70;99.90;;;;;;5068264;28;20219;-77
2023/03/19 02:36:41;;;;;;;17.13;10.83;;;10.80;99.90;;;;;;5046588;28;20314;-75
2023/03/19 02:39:16;;;;;;;18.70;11.40;;;10.70;99.90;;;;;;5064768;28;20206;-75
2023/03/19 02:41:44;;;;;;;18.17;11.53;;;10.60;99.90;;;;;;5072417;22;20772;-79
2023/03/19 02:44:11;;;;;;;20.87;11.00;;;10.60;99.90;;;;;;5041038;28;20230;-78
2023/03/19 02:46:37;;;;;;;15.63;11.07;;;10.70;99.90;;;;;;5053553;28;20658;-79
2023/03/19 02:49:02;;;;;;;15.63;10.87;;;10.60;99.90;;;;;;5054955;28;20257;-80
2023/03/19 02:51:28;;;;;;;16.63;10.97;;;10.60;99.90;;;;;;5067132;28;20215;-79
2023/03/19 02:53:54;;;;;;;18.27;11.43;;;10.60;99.90;;;;;;5056451;28;20685;-79
2023/03/19 02:56:20;;;;;;;16.70;11.73;;;10.60;99.90;;;;;;5077336;28;20234;-80
2023/03/19 02:58:45;;;;;;;16.87;11.13;;;10.60;99.90;;;;;;5053901;28;20190;-79
2023/03/19 03:01:11;;;;;;;18.40;11.23;;;10.60;99.90;;;;;;5048921;28;20200;-79
2023/03/19 03:03:37;;;;;;;17.80;11.37;;;10.50;99.90;;;;;;5073411;28;20219;-80
2023/03/19 03:06:02;;;;;;;19.50;11.93;;;10.60;99.90;;;;;;5074827;28;20226;-79
2023/03/19 03:08:28;;;;;;;16.53;11.30;;;10.60;99.90;;;;;;5056258;28;20207;-79
2023/03/19 03:10:54;;;;;;;20.33;12.27;;;10.60;99.90;;;;;;5069504;28;20218;-77
2023/03/19 03:13:20;;;;;;;21.60;12.30;;;10.50;99.90;;;;;;5056137;28;20642;-80
2023/03/19 03:15:46;;;;;;;20.80;12.53;;;10.50;99.90;;;;;;5071667;28;20203;-78
2023/03/19 03:18:11;;;;;;;20.27;12.10;;;10.60;99.90;;;;;;5069934;28;20310;-80
2023/03/19 03:20:37;;;;;;;19.83;12.87;;;10.70;99.90;;;;;;5068678;28;20219;-79
2023/03/19 03:23:03;;;;;;;20.80;12.37;;;10.60;99.90;;;;;;5067249;28;20207;-80
2023/03/19 03:25:29;;;;;;;18.27;12.30;;;10.60;99.90;;;;;;5070873;28;20203;-79
2023/03/19 03:27:55;;;;;;;20.37;12.73;;;10.50;99.90;;;;;;5055465;28;20207;-80
2023/03/19 03:30:20;;;;;;;20.67;12.50;;;10.50;99.90;;;;;;5058631;28;20278;-79
2023/03/19 03:32:46;;;;;;;18.07;11.97;;;10.60;99.90;;;;;;5054703;28;20222;-78
2023/03/19 03:35:12;;;;;;;18.87;12.10;;;10.70;99.90;;;;;;5051560;28;20207;-79
2023/03/19 03:37:38;;;;;;;19.53;12.07;;;10.80;99.90;;;;;;5057145;28;20179;-80
2023/03/19 03:40:07;;;;;;;18.63;12.80;;;10.90;99.90;;;;;;5068531;28;20178;-80
2023/03/19 03:42:35;;;;;;;20.40;12.67;;;10.90;99.90;;;;;;5070903;28;20729;-79
2023/03/19 03:45:00;;;;;;;19.57;12.70;;;10.90;99.90;;;;;;5067779;28;20212;-80
2023/03/19 03:47:26;;;;;;;17.83;11.70;;;10.80;99.90;;;;;;5054589;28;20211;-79
2023/03/19 03:49:52;;;;;;;19.37;12.30;;;10.80;99.90;;;;;;5056351;28;20186;-79
2023/03/19 03:52:17;;;;;;;18.93;12.93;;;10.80;99.90;;;;;;5053758;28;20183;-79
2023/03/19 03:54:43;;;;;;;19.50;12.40;;;10.80;99.90;;;;;;5065823;28;20215;-79
2023/03/19 03:57:08;;;;;;;20.80;12.73;;;10.70;99.90;;;;;;5070747;28;20211;-78
2023/03/19 03:59:35;;;;;;;20.50;11.83;;;10.70;99.90;;;;;;5073197;28;20211;-79
2023/03/19 04:02:00;;;;;;;17.23;12.33;;;10.70;99.90;;;;;;5057072;28;20219;-79
2023/03/19 04:04:26;;;;;;;17.17;11.97;;;10.70;99.90;;;;;;5078193;28;20274;-80
2023/03/19 04:06:52;;;;;;;21.70;12.70;;;10.70;99.90;;;;;;5061045;28;20203;-80
2023/03/19 04:09:18;;;;;;;20.40;12.33;;;10.70;99.90;;;;;;5080348;28;20695;-79
2023/03/19 04:11:44;;;;;;;17.33;12.47;;;10.80;99.90;;;;;;5072902;28;20218;-79
2023/03/19 04:14:10;;;;;;;18.97;12.50;;;10.80;99.90;;;;;;5054976;28;20241;-79
2023/03/19 04:16:35;;;;;;;18.13;11.77;;;10.80;99.90;;;;;;5068906;28;20178;-79
2023/03/19 04:19:01;;;;;;;17.10;11.67;;;10.80;99.90;;;;;;5075316;28;20222;-80
2023/03/19 04:21:27;;;;;;;20.37;12.90;;;10.80;99.90;;;;;;5054609;28;20249;-78
2023/03/19 04:23:53;;;;;;;20.77;12.83;;;10.70;99.90;;;;;;5068723;28;20265;-79
2023/03/19 04:26:18;;;;;;;19.90;12.73;;;10.70;99.90;;;;;;5048959;28;20224;-81
2023/03/19 04:28:44;;;;;;;18.73;11.60;;;10.70;99.90;;;;;;5075471;28;20205;-81
2023/03/19 04:31:10;;;;;;;18.60;12.10;;;10.70;99.90;;;;;;5062939;28;20194;-78
2023/03/19 04:33:36;;;;;;;17.33;12.40;;;10.70;99.90;;;;;;5076282;28;20226;-80
2023/03/19 04:36:02;;;;;;;19.90;13.13;;;10.70;99.90;;;;;;5070467;28;20215;-80
2023/03/19 04:38:28;;;;;;;19.23;12.97;;;10.70;99.90;;;;;;5058928;28;20226;-80
2023/03/19 04:40:56;;;;;;;21.57;13.17;;;10.70;99.90;;;;;;5051780;28;20214;-80
2023/03/19 04:43:22;;;;;;;20.00;12.97;;;10.70;99.90;;;;;;5055059;28;20249;-80
2023/03/19 04:45:49;;;;;;;18.37;11.97;;;10.60;99.90;;;;;;5070904;28;20219;-80
2023/03/19 04:48:14;;;;;;;25.23;13.07;;;10.60;99.90;;;;;;5069298;28;20729;-80
2023/03/19 04:50:40;;;;;;;19.97;13.17;;;10.70;99.90;;;;;;5077318;28;20231;-80
2023/03/19 04:53:06;;;;;;;20.13;13.07;;;10.70;99.90;;;;;;5058903;28;20215;-81
2023/03/19 04:55:33;;;;;;;23.40;12.50;;;10.60;99.90;;;;;;5072213;28;20187;-81
2023/03/19 04:57:59;;;;;;;20.33;12.37;;;10.60;99.90;;;;;;5067769;28;20704;-80
2023/03/19 05:00:24;;;;;;;19.10;14.40;;;10.70;99.90;;;;;;5067772;28;20584;-81
2023/03/19 05:02:50;;;;;;;18.73;13.40;;;10.60;99.90;;;;;;5072712;28;20226;-81
2023/03/19 05:05:17;;;;;;;16.90;12.00;;;10.70;99.90;;;;;;5073557;28;20643;-81
2023/03/19 05:07:43;;;;;;;18.40;12.80;;;10.80;99.90;;;;;;5057997;28;20175;-82
2023/03/19 05:10:10;;;;;;;19.73;13.50;;;10.80;99.90;;;;;;5056646;28;20577;-80
2023/03/19 05:12:35;;;;;;;20.07;11.93;;;10.90;99.90;;;;;;5062051;28;20211;-82
2023/03/19 05:15:01;;;;;;;23.37;13.07;;;10.90;99.90;;;;;;5075268;28;20256;-81
2023/03/19 05:17:27;;;;;;;19.97;14.03;;;10.80;99.90;;;;;;5080584;28;20210;-82
2023/03/19 05:19:53;;;;;;;19.03;12.70;;;10.80;99.90;;;;;;5075191;28;20199;-81
2023/03/19 05:22:19;;;;;;;19.13;13.20;;;10.70;99.90;;;;;;5064247;28;20179;-82
2023/03/19 05:24:45;;;;;;;20.20;12.97;;;10.70;99.90;;;;;;5067057;28;20218;-81
2023/03/19 05:27:11;;;;;;;18.20;12.93;;;10.70;99.90;;;;;;5058487;28;20207;-81
2023/03/19 05:29:37;;;;;;;17.70;13.00;;;10.70;99.90;;;;;;5085295;28;20207;-80
2023/03/19 05:32:03;;;;;;;21.20;14.00;;;10.70;99.90;;;;;;5088411;28;20211;-83
2023/03/19 05:34:29;;;;;;;29.37;15.03;;;10.70;99.90;;;;;;5087027;28;20205;-83
2023/03/19 05:36:54;;;;;;;18.73;14.10;;;10.60;99.90;;;;;;5067348;28;20286;-82
2023/03/19 05:39:20;;;;;;;18.40;12.57;;;10.60;99.90;;;;;;5081477;28;20588;-83
2023/03/19 05:41:46;;;;;;;23.23;14.10;;;10.50;99.90;;;;;;5076496;28;20233;-81
2023/03/19 05:44:12;;;;;;;18.43;12.03;;;10.60;99.90;;;;;;5075605;28;20207;-81
2023/03/19 05:46:37;;;;;;;20.67;12.10;;;10.50;99.90;;;;;;5064897;28;20250;-81
2023/03/19 05:49:03;;;;;;;18.50;12.63;;;10.50;99.90;;;;;;5076959;28;20172;-81
2023/03/19 05:51:29;;;;;;;18.00;12.60;;;10.60;99.90;;;;;;5056902;28;20203;-81
2023/03/19 05:53:55;;;;;;;15.60;11.53;;;10.60;99.90;;;;;;5075927;28;20203;-80
2023/03/19 05:56:21;;;;;;;13.93;10.80;;;10.60;99.90;;;;;;5075819;28;20195;-83
2023/03/19 05:58:46;;;;;;;15.93;11.33;;;10.70;99.90;;;;;;5062629;28;20653;-80
2023/03/19 06:01:12;;;;;;;15.37;10.77;;;10.80;99.90;;;;;;5077072;28;20199;-81
2023/03/19 06:03:38;;;;;;;19.70;12.52;;;10.70;99.90;;;;;;5076802;28;20418;-79
2023/03/19 06:06:03;;;;;;;19.37;11.17;;;10.80;99.90;;;;;;5061886;28;20225;-81
2023/03/19 06:08:29;;;;;;;16.53;11.13;;;10.90;99.90;;;;;;5081854;28;20268;-81
2023/03/19 06:10:55;;;;;;;17.53;11.80;;;11.20;99.90;;;;;;5079887;28;20685;-79
2023/03/19 06:13:20;;;;;;;13.87;10.07;;;11.70;99.90;;;;;;5092985;28;20171;-81
2023/03/19 06:15:48;;;;;;;14.27;10.47;;;12.00;99.90;;;;;;5099513;28;20274;-82
2023/03/19 06:18:14;;;;;;;14.97;9.53;;;12.60;99.90;;;;;;5099405;28;20206;-83
2023/03/19 06:20:40;;;;;;;14.60;9.53;;;13.30;99.90;;;;;;5095862;28;20213;-83
2023/03/19 06:23:06;;;;;;;12.35;8.98;;;13.60;99.90;;;;;;5085025;28;20225;-82
2023/03/19 06:25:32;;;;;;;14.85;9.07;;;13.90;99.90;;;;;;5085982;28;20179;-81
2023/03/19 06:27:58;;;;;;;13.70;8.70;;;14.60;99.90;;;;;;5082934;28;20210;-80
2023/03/19 06:30:24;;;;;;;12.93;9.02;;;15.30;99.90;;;;;;5085768;28;20203;-81
2023/03/19 06:32:50;;;;;;;10.48;8.00;;;16.10;99.90;;;;;;5075519;28;20203;-79
2023/03/19 06:35:16;;;;;;;13.13;8.80;;;16.80;99.90;;;;;;5052244;28;20211;-80
2023/03/19 06:37:42;;;;;;;10.93;8.00;;;16.10;99.90;;;;;;5055870;28;20261;-78
2023/03/19 06:40:08;;;;;;;11.65;8.50;;;15.00;99.90;;;;;;5069755;28;20163;-80
2023/03/19 06:42:34;;;;;;;11.23;7.88;;;14.60;99.90;;;;;;5098163;28;20213;-81
2023/03/19 06:45:00;;;;;;;13.32;8.80;;;14.30;99.90;;;;;;5077329;28;20275;-82
2023/03/19 06:47:26;;;;;;;15.40;9.23;;;14.10;99.90;;;;;;5084871;28;20215;-80
2023/03/19 06:49:51;;;;;;;13.35;8.70;;;13.80;99.90;;;;;;5075869;28;20175;-79
2023/03/19 06:52:17;;;;;;;13.52;10.07;;;13.60;99.90;;;;;;5072907;28;20186;-78
2023/03/19 06:54:42;;;;;;;13.93;9.52;;;13.40;99.90;;;;;;5060210;28;20234;-81
2023/03/19 06:57:08;;;;;;;13.32;10.25;;;13.10;99.90;;;;;;5075852;28;20214;-82
2023/03/19 06:59:34;;;;;;;14.85;10.15;;;12.90;99.90;;;;;;5063172;28;20204;-82
2023/03/19 07:01:59;;;;;;;14.38;10.70;;;12.40;99.90;;;;;;5077467;28;20411;-79
2023/03/19 07:04:25;;;;;;;16.67;12.48;;;12.10;99.90;;;;;;5076838;28;20210;-79
2023/03/19 07:06:51;;;;;;;19.40;13.17;;;11.80;99.90;;;;;;5074304;28;20208;-81
2023/03/19 07:09:16;;;;;;;16.90;12.13;;;11.40;99.90;;;;;;5077659;28;20682;-82
2023/03/19 07:11:42;;;;;;;16.33;11.90;;;11.20;99.90;;;;;;5065554;28;20210;-80
2023/03/19 07:14:08;;;;;;;18.37;13.13;;;11.10;99.90;;;;;;5075564;28;20210;-80
2023/03/19 07:16:34;;;;;;;21.47;13.33;;;11.10;99.90;;;;;;5080264;28;20171;-80
2023/03/19 07:19:00;;;;;;;17.47;12.53;;;11.00;99.90;;;;;;5076903;28;20207;-81
2023/03/19 07:21:25;;;;;;;15.93;12.07;;;11.00;99.90;;;;;;5063818;28;20285;-82
2023/03/19 07:23:51;;;;;;;19.23;13.53;;;10.90;99.90;;;;;;5056422;28;20218;-82
2023/03/19 07:26:17;;;;;;;20.43;16.33;;;10.90;99.90;;;;;;5078860;28;20223;-79
2023/03/19 07:28:43;;;;;;;19.33;14.17;;;10.80;99.90;;;;;;5076176;28;20205;-82
2023/03/19 07:31:09;;;;;;;20.83;13.37;;;10.60;99.90;;;;;;5079792;28;20277;-80
2023/03/19 07:33:35;;;;;;;19.93;13.43;;;10.50;99.90;;;;;;5081419;28;20215;-81
2023/03/19 07:36:00;;;;;;;22.50;14.57;;;10.30;99.90;;;;;;5077776;28;20219;-81
2023/03/19 07:38:26;;;;;;;20.83;14.70;;;10.00;99.90;;;;;;5078073;28;20206;-81
2023/03/19 07:40:52;;;;;;;23.60;15.37;;;10.00;99.90;;;;;;5065460;28;20699;-81
2023/03/19 07:43:17;;;;;;;24.57;14.50;;;10.10;99.90;;;;;;5081493;28;20179;-82
2023/03/19 07:45:43;;;;;;;21.23;14.67;;;10.20;99.90;;;;;;5082963;28;20214;-82
2023/03/19 07:48:09;;;;;;;22.97;13.53;;;10.20;99.90;;;;;;5084662;28;20222;-80
2023/03/19 07:50:35;;;;;;;22.70;14.47;;;10.10;99.90;;;;;;5088981;28;20223;-81
2023/03/19 07:53:01;;;;;;;45.47;28.00;;;10.20;99.90;;;;;;5085698;28;20203;-83
2023/03/19 07:55:26;;;;;;;23.17;15.03;;;10.30;99.90;;;;;;5089816;28;20242;-83
2023/03/19 07:57:52;;;;;;;21.67;14.53;;;10.10;99.90;;;;;;5067049;28;20187;-82
2023/03/19 08:00:18;;;;;;;20.63;14.23;;;10.00;99.90;;;;;;5084963;28;20220;-83
2023/03/19 08:02:44;;;;;;;18.97;14.10;;;10.00;99.90;;;;;;5089004;28;20205;-83
2023/03/19 08:05:10;;;;;;;18.60;14.60;;;10.10;99.90;;;;;;5087716;28;20227;-80
2023/03/19 08:07:36;;;;;;;23.47;14.97;;;10.20;99.90;;;;;;5087168;28;20183;-81
2023/03/19 08:10:03;;;;;;;22.77;15.00;;;10.20;99.90;;;;;;5085707;28;20642;-80
2023/03/19 08:12:30;;;;;;;19.10;13.43;;;10.30;99.90;;;;;;5080981;28;20221;-81
2023/03/19 08:14:56;;;;;;;19.97;14.70;;;10.40;99.90;;;;;;5070633;28;20209;-80
2023/03/19 08:17:22;;;;;;;19.87;14.10;;;10.30;99.90;;;;;;5068828;28;20231;-82
2023/03/19 08:19:47;;;;;;;25.30;14.83;;;10.50;99.90;;;;;;5084417;28;20166;-81
2023/03/19 08:22:13;;;;;;;26.23;14.73;;;10.70;99.90;;;;;;5085907;28;20218;-81
2023/03/19 08:24:39;;;;;;;20.17;14.97;;;10.80;99.90;;;;;;5086403;28;20275;-80
2023/03/19 08:27:05;;;;;;;22.13;15.83;;;10.90;99.90;;;;;;5093638;28;20210;-82
2023/03/19 08:29:31;;;;;;;20.90;15.60;;;11.00;99.90;;;;;;5075844;28;20612;-85
2023/03/19 08:31:57;;;;;;;23.53;14.60;;;11.00;99.90;;;;;;5083875;28;20227;-81
2023/03/19 08:34:23;;;;;;;20.03;15.10;;;11.00;99.90;;;;;;5084114;28;20171;-81
2023/03/19 08:36:49;;;;;;;20.93;14.60;;;10.90;99.90;;;;;;5091169;28;20266;-82
2023/03/19 08:39:15;;;;;;;21.87;14.20;;;10.80;99.90;;;;;;5089164;28;20269;-83
2023/03/19 08:41:40;;;;;;;21.07;14.73;;;10.60;99.90;;;;;;5107424;22;20650;-76
2023/03/19 08:44:06;;;;;;;23.07;15.23;;;10.50;99.90;;;;;;5085025;28;20755;-75
2023/03/19 08:46:32;;;;;;;22.83;14.73;;;10.40;99.90;;;;;;5090370;28;20265;-76
2023/03/19 08:48:59;;;;;;;24.47;15.93;;;10.20;99.90;;;;;;5085341;28;20297;-75
2023/03/19 08:51:25;;;;;;;23.57;15.83;;;10.10;99.90;;;;;;5084975;28;20202;-76
2023/03/19 08:53:51;;;;;;;25.53;16.43;;;10.20;99.90;;;;;;5070162;28;20308;-77
2023/03/19 08:56:17;;;;;;;25.23;16.07;;;10.20;99.90;;;;;;5084160;28;20587;-76
2023/03/19 08:58:44;;;;;;;21.50;15.30;;;10.20;99.90;;;;;;5070095;28;20185;-76
2023/03/19 09:01:11;;;;;;;21.00;15.33;;;10.20;99.90;;;;;;5070214;28;20191;-77
2023/03/19 09:03:38;;;;;;;25.80;14.93;;;10.10;99.90;;;;;;5074825;28;20205;-76
2023/03/19 09:06:05;;;;;;;20.83;15.00;;;10.00;99.90;;;;;;5082979;28;20260;-75
2023/03/19 09:08:31;;;;;;;20.07;14.40;;;10.00;99.90;;;;;;5089427;28;20214;-76
2023/03/19 09:10:57;;;;;;;21.07;14.13;;;10.00;99.90;;;;;;5071845;28;20297;-74
2023/03/19 09:13:24;;;;;;;22.57;15.07;;;10.10;99.90;;;;;;5088306;28;20191;-76
2023/03/19 09:15:50;;;;;;;20.70;14.47;;;10.10;99.90;;;;;;5073696;28;20198;-76
2023/03/19 09:18:16;;;;;;;19.97;14.83;;;10.20;99.90;;;;;;5070090;28;20289;-77
2023/03/19 09:20:42;;;;;;;22.70;15.20;;;10.10;99.90;;;;;;5087138;28;20210;-76
2023/03/19 09:23:08;;;;;;;20.20;14.67;;;10.20;99.90;;;;;;5073380;28;20213;-74
2023/03/19 09:25:34;;;;;;;18.50;14.20;;;10.30;99.90;;;;;;5087882;28;20241;-75
2023/03/19 09:27:59;;;;;;;16.57;12.60;;;10.30;99.90;;;;;;5086744;28;20564;-76
2023/03/19 09:30:26;;;;;;;17.83;12.90;;;10.30;99.90;;;;;;5072820;28;20221;-75
2023/03/19 09:32:51;;;;;;;19.70;13.57;;;10.40;99.90;;;;;;5087563;28;20206;-76
2023/03/19 09:35:17;;;;;;;21.60;15.57;;;10.50;99.90;;;;;;5074171;28;20708;-76
2023/03/19 09:37:43;;;;;;;24.67;16.50;;;10.40;99.90;;;;;;5085364;28;20228;-76
2023/03/19 09:40:20;;;;;;;26.70;15.17;;;10.50;99.90;;;;;;5071900;28;20171;-76
2023/03/19 09:43:07;;;;;;;21.53;14.20;;;10.50;99.90;;;;;;5075527;28;20214;-77
2023/03/19 09:45:33;;;;;;;17.50;12.67;;;10.80;99.90;;;;;;5087020;28;20210;-77
2023/03/19 09:48:05;;;;;;;20.90;13.10;;;11.00;99.90;;;;;;5069433;28;20210;-75
2023/03/19 09:50:33;;;;;;;17.97;13.23;;;11.10;99.90;;;;;;5075541;28;20300;-75
2023/03/19 09:53:34;;;;;;;18.70;13.27;;;11.30;99.90;;;;;;5090124;28;20230;-76
2023/03/19 09:56:03;;;;;;;15.97;11.60;;;11.50;99.90;;;;;;5071399;28;20213;-75
2023/03/19 09:58:35;;;;;;;17.40;12.70;;;11.60;99.90;;;;;;5074964;28;20205;-76
2023/03/19 10:01:01;;;;;;;17.53;11.87;;;11.80;99.90;;;;;;5089074;28;20715;-75
2023/03/19 10:03:30;;;;;;;15.03;11.47;;;12.00;99.90;;;;;;5072363;28;20560;-75
2023/03/19 10:06:05;;;;;;;14.57;10.53;;;12.20;99.90;;;;;;5087503;28;20245;-77
2023/03/19 10:08:48;;;;;;;12.97;10.37;;;12.30;99.90;;;;;;5075264;28;20221;-74
2023/03/19 10:11:29;;;;;;;17.90;12.60;;;12.30;99.90;;;;;;5068229;28;20214;-76
2023/03/19 10:14:28;;;;;;;18.27;13.73;;;12.40;99.90;;;;;;5089599;28;20186;-76
2023/03/19 10:16:56;;;;;;;15.97;11.50;;;12.50;99.90;;;;;;5086290;28;20691;-76
2023/03/19 10:19:55;;;;;;;17.33;10.53;;;12.20;99.90;;;;;;5084774;28;20677;-77
2023/03/19 10:22:27;;;;;;;16.87;11.20;;;12.10;99.90;;;;;;5001249;28;20225;-76
2023/03/19 10:24:55;;;;;;;15.20;9.97;;;11.90;99.90;;;;;;5089915;28;20214;-76
2023/03/19 10:27:25;;;;;;;12.87;10.40;;;12.00;99.90;;;;;;5068034;28;20222;-76
2023/03/19 10:29:51;;;;;;;14.63;10.87;;;12.00;99.90;;;;;;5073397;28;20206;-76
2023/03/19 10:32:28;;;;;;;16.93;11.47;;;12.30;99.90;;;;;;5070050;28;20218;-76
2023/03/19 10:35:00;;;;;;;15.47;10.77;;;12.40;99.90;;;;;;5069895;28;20189;-75
2023/03/19 10:37:29;;;;;;;17.73;10.87;;;12.60;99.90;;;;;;5070652;28;20213;-76
2023/03/19 10:39:57;;;;;;;16.37;11.73;;;12.80;99.90;;;;;;5085367;28;20218;-77
2023/03/19 10:42:42;;;;;;;16.50;11.10;;;12.80;99.90;;;;;;5083928;28;20222;-77
2023/03/19 10:45:27;;;;;;;16.87;11.50;;;13.00;99.90;;;;;;5084817;28;20210;-76
2023/03/19 10:47:55;;;;;;;15.47;10.47;;;13.30;99.90;;;;;;5086883;28;20197;-74
2023/03/19 10:50:34;;;;;;;16.83;10.70;;;13.40;99.90;;;;;;5087700;28;20218;-75
2023/03/19 10:53:12;;;;;;;12.90;9.87;;;13.40;99.90;;;;;;5067250;28;20401;-76
2023/03/19 10:55:43;;;;;;;15.03;9.70;;;13.60;99.90;;;;;;5084142;28;20236;-75
2023/03/19 10:58:22;;;;;;;15.67;9.70;;;13.50;99.90;;;;;;5085511;28;20170;-75
2023/03/19 11:00:55;;;;;;;13.23;9.63;;;13.60;99.90;;;;;;5084966;28;20228;-75
2023/03/19 11:03:34;;;;;;;16.67;10.27;;;13.60;99.90;;;;;;5071755;28;20207;-75
2023/03/19 11:06:05;;;;;;;14.17;10.27;;;13.40;99.90;;;;;;5074197;28;20252;-74
2023/03/19 11:08:35;;;;;;;16.17;10.27;;;13.50;99.90;;;;;;5090064;28;20233;-77
2023/03/19 11:11:01;;;;;;;14.40;10.00;;;13.60;99.90;;;;;;5074330;28;20249;-77
2023/03/19 11:13:27;;;;;;;15.98;9.98;;;13.80;99.90;;;;;;5073504;28;20205;-76
2023/03/19 11:15:56;;;;;;;14.23;9.25;;;13.90;99.90;;;;;;5074409;28;20206;-76
2023/03/19 11:18:27;;;;;;;11.43;8.95;;;13.80;99.90;;;;;;5072545;28;20739;-77
2023/03/19 11:21:05;;;;;;;12.93;9.25;;;13.80;99.90;;;;;;5085576;28;20206;-76
2023/03/19 11:23:38;;;;;;;12.23;8.60;;;13.60;99.90;;;;;;5072853;28;20210;-76
2023/03/19 11:26:04;;;;;;;9.37;7.93;;;13.70;99.90;;;;;;5070156;28;20283;-76
2023/03/19 11:28:32;;;;;;;11.25;8.20;;;13.70;99.90;;;;;;5089099;28;20234;-76
2023/03/19 11:31:08;;;;;;;10.27;8.30;;;13.80;99.90;;;;;;5073073;28;20210;-76
2023/03/19 11:33:56;;;;;;;11.43;8.40;;;13.70;99.90;;;;;;5069574;28;20263;-76
2023/03/19 11:36:26;;;;;;;8.73;7.70;;;13.80;99.90;;;;;;5087518;28;20222;-76
2023/03/19 11:39:22;;;;;;;11.17;7.90;;;13.80;99.90;;;;;;5072999;28;20217;-75
2023/03/19 11:42:24;;;;;;;10.23;7.13;;;13.80;99.90;;;;;;5086092;28;20348;-76
2023/03/19 11:45:02;;;;;;;11.88;7.00;;;13.70;99.90;;;;;;5084379;28;20210;-76
2023/03/19 11:47:47;;;;;;;8.63;6.73;;;13.60;99.90;;;;;;5073602;28;20206;-76
2023/03/19 11:50:37;;;;;;;12.82;7.32;;;13.60;99.90;;;;;;5069145;28;20643;-76
2023/03/19 11:53:21;;;;;;;10.02;7.60;;;13.60;99.90;;;;;;5068446;28;20286;-76
2023/03/19 11:55:53;;;;;;;8.45;6.35;;;13.70;99.90;;;;;;5084052;28;20181;-76
2023/03/19 11:58:40;;;;;;;11.40;7.20;;;13.70;99.90;;;;;;5070079;28;20283;-76
2023/03/19 12:01:25;;;;;;;9.48;7.05;;;13.80;99.90;;;;;;5078311;28;20208;-76
2023/03/19 12:04:16;;;;;;;8.10;6.97;;;13.90;99.90;;;;;;5096192;28;20210;-76
2023/03/19 12:07:01;;;;;;;12.07;7.90;;;14.00;99.90;;;;;;5069765;28;20256;-76
2023/03/19 12:09:45;;;;;;;10.00;7.28;;;14.00;99.90;;;;;;5074786;28;20614;-76
2023/03/19 12:12:23;;;;;;;8.73;7.22;;;14.10;99.90;;;;;;5073278;28;20204;-75
2023/03/19 12:15:08;;;;;;;8.45;6.43;;;14.10;99.90;;;;;;5074207;28;20633;-76
2023/03/19 12:17:45;;;;;;;8.70;6.65;;;14.20;99.90;;;;;;5084343;28;20246;-76
2023/03/19 12:20:14;;;;;;;9.48;7.35;;;14.40;99.90;;;;;;5082669;28;20313;-75
2023/03/19 12:23:02;;;;;;;11.55;7.97;;;14.40;99.90;;;;;;5087705;28;20696;-76
2023/03/19 12:25:51;;;;;;;12.13;9.25;;;14.50;99.90;;;;;;5080912;28;20199;-76
2023/03/19 12:28:28;;;;;;;16.20;11.93;;;14.60;99.90;;;;;;5069877;28;20207;-74
2023/03/19 12:31:16;;;;;;;10.40;7.00;;;14.70;99.90;;;;;;5089613;28;20305;-75
2023/03/19 12:33:54;;;;;;;11.70;7.40;;;14.70;99.90;;;;;;5084352;28;20244;-76
2023/03/19 12:36:25;;;;;;;12.43;7.78;;;14.70;99.90;;;;;;5069700;28;20230;-76